createdAt,value
2023-05-14T00:04:06.080Z,12.02
2023-05-14T00:09:07.747Z,10.02
2023-05-14T00:14:09.451Z,11.15
2023-05-14T00:19:12.452Z,11.85
2023-05-14T00:24:14.203Z,11.85
2023-05-14T00:29:15.791Z,12.57
2023-05-14T00:34:18.846Z,22.13
2023-05-14T00:39:21.512Z,17.85
2023-05-14T00:44:23.091Z,13.25
2023-05-14T00:49:28.107Z,21.98
2023-05-14T00:54:30.573Z,17.33
2023-05-14T00:59:33.819Z,19.00
2023-05-14T01:04:37.266Z,16.25
2023-05-14T01:09:44.981Z,16.88
2023-05-14T01:20:11.912Z,18.33
2023-05-14T01:25:14.906Z,17.33
2023-05-14T01:30:25.716Z,16.23
2023-05-14T01:35:29.812Z,21.42
2023-05-14T01:40:33.384Z,25.85
2023-05-14T01:45:36.495Z,25.88
2023-05-14T01:50:38.194Z,27.92
2023-05-14T01:55:42.160Z,29.00
2023-05-14T02:00:43.870Z,29.50
2023-05-14T02:05:45.524Z,30.15
2023-05-14T02:10:48.662Z,31.73
2023-05-14T02:15:52.366Z,31.02
2023-05-14T02:20:55.198Z,33.13
2023-05-14T02:25:58.143Z,30.20
2023-05-14T02:30:59.853Z,27.83
2023-05-14T02:36:04.011Z,23.92
2023-05-14T02:41:08.503Z,25.95
2023-05-14T02:46:10.058Z,27.95
2023-05-14T02:51:12.898Z,29.00
2023-05-14T02:56:15.935Z,32.92
2023-05-14T03:01:17.775Z,29.23
2023-05-14T03:06:21.874Z,23.00
2023-05-14T03:11:25.159Z,31.52
2023-05-14T03:16:27.062Z,32.63
2023-05-14T03:21:28.853Z,37.58
2023-05-14T03:26:31.950Z,28.92
2023-05-14T03:31:33.577Z,37.72
2023-05-14T03:36:35.358Z,24.20
2023-05-14T03:41:40.388Z,40.92
2023-05-14T03:52:07.732Z,32.90
2023-05-14T03:57:13.128Z,40.78
2023-05-14T04:02:17.599Z,32.38
2023-05-14T04:07:19.317Z,29.92
2023-05-14T04:12:25.659Z,29.83
2023-05-14T04:17:27.273Z,37.60
2023-05-14T04:22:28.960Z,19.58
2023-05-14T04:27:32.978Z,28.88
2023-05-14T04:32:36.866Z,33.10
2023-05-14T04:37:38.645Z,38.75
2023-05-14T04:42:41.639Z,39.65
2023-05-14T04:47:43.387Z,44.70
2023-05-14T04:52:45.062Z,41.47
2023-05-14T04:57:48.055Z,34.53
2023-05-14T05:02:51.784Z,19.27
2023-05-14T05:07:56.127Z,29.10
2023-05-14T05:12:59.100Z,24.50
2023-05-14T05:18:03.175Z,27.27
2023-05-14T05:23:04.971Z,25.70
2023-05-14T05:28:10.295Z,24.77
2023-05-14T05:33:12.271Z,19.77
2023-05-14T05:38:14.096Z,29.42
2023-05-14T05:43:17.084Z,26.98
2023-05-14T05:48:18.726Z,19.02
2023-05-14T05:53:20.373Z,24.50
2023-05-14T05:58:23.433Z,33.25
2023-05-14T06:03:25.301Z,26.80
2023-05-14T06:08:27.938Z,28.25
2023-05-14T06:13:30.919Z,24.17
2023-05-14T06:18:32.620Z,22.67
2023-05-14T06:23:34.212Z,26.52
2023-05-14T06:28:37.283Z,26.70
2023-05-14T06:33:38.982Z,26.02
2023-05-14T06:38:40.581Z,24.70
2023-05-14T06:43:58.395Z,22.90
2023-05-14T06:49:00.071Z,29.05
2023-05-14T06:54:03.748Z,30.20
2023-05-14T06:59:06.846Z,29.50
2023-05-14T07:04:08.605Z,25.33
2023-05-14T07:09:10.324Z,23.10
2023-05-14T07:14:13.407Z,21.88
2023-05-14T07:19:17.365Z,23.90
2023-05-14T07:24:21.658Z,21.35
2023-05-14T07:29:33.428Z,17.98
2023-05-14T07:34:35.218Z,15.73
2023-05-14T07:39:36.870Z,16.17
2023-05-14T07:44:39.860Z,14.15
2023-05-14T07:49:41.498Z,14.80
2023-05-14T07:54:43.188Z,15.20
2023-05-14T07:59:55.036Z,15.13
2023-05-14T08:04:56.776Z,10.15
2023-05-14T08:09:58.437Z,10.43
2023-05-14T08:15:06.627Z,11.50
2023-05-14T08:20:11.396Z,14.40
2023-05-14T08:25:13.260Z,13.35
2023-05-14T08:30:16.762Z,10.73
2023-05-14T08:35:19.790Z,10.75
2023-05-14T08:40:22.000Z,15.05
2023-05-14T08:45:30.962Z,11.07
2023-05-14T08:50:32.814Z,9.43
2023-05-14T08:55:35.715Z,11.38
2023-05-14T09:00:41.216Z,12.35
2023-05-14T09:05:44.167Z,10.80
2023-05-14T09:10:48.093Z,9.40
2023-05-14T09:15:51.823Z,10.43
2023-05-14T09:20:53.501Z,11.30
2023-05-14T09:25:55.175Z,11.93
2023-05-14T09:30:58.193Z,11.43
2023-05-14T09:36:00.411Z,13.68
2023-05-14T09:41:02.050Z,6.90
2023-05-14T09:46:07.564Z,12.15
2023-05-14T09:51:10.076Z,11.68
2023-05-14T09:56:11.736Z,10.07
2023-05-14T10:01:17.624Z,9.68
2023-05-14T10:06:25.804Z,7.20
2023-05-14T10:11:31.805Z,8.77
2023-05-14T10:16:43.615Z,8.20
2023-05-14T10:21:50.667Z,11.63
2023-05-14T10:26:52.692Z,11.37
2023-05-14T10:32:03.101Z,8.68
2023-05-14T10:37:07.150Z,6.03
2023-05-14T10:42:10.802Z,12.18
2023-05-14T10:47:20.492Z,7.85
2023-05-14T10:52:25.278Z,9.20
2023-05-14T10:57:31.776Z,11.88
2023-05-14T11:02:36.399Z,6.35
2023-05-14T11:07:39.882Z,6.15
2023-05-14T11:12:43.166Z,6.18
2023-05-14T11:17:49.333Z,7.28
2023-05-14T11:22:51.083Z,6.18
2023-05-14T11:27:52.913Z,5.25
2023-05-14T11:32:56.263Z,5.35
2023-05-14T11:38:00.357Z,6.78
2023-05-14T11:43:02.082Z,3.78
2023-05-14T11:48:20.066Z,6.05
2023-05-14T11:58:33.184Z,5.80
2023-05-14T12:03:36.663Z,6.88
2023-05-14T12:08:38.812Z,5.47
2023-05-14T12:13:40.489Z,5.95
2023-05-14T12:18:43.610Z,5.38
2023-05-14T12:23:45.307Z,3.88
2023-05-14T12:28:47.866Z,5.10
2023-05-14T12:33:58.917Z,3.63
2023-05-14T12:39:02.289Z,3.53
2023-05-14T12:44:06.016Z,4.90
2023-05-14T12:49:11.232Z,3.38
2023-05-14T12:54:12.931Z,2.97
2023-05-14T12:59:14.465Z,2.97
2023-05-14T13:04:17.569Z,2.90
2023-05-14T13:09:19.191Z,5.35
2023-05-14T13:14:22.170Z,6.47
2023-05-14T13:19:25.177Z,3.33
2023-05-14T13:24:26.843Z,4.38
2023-05-14T13:29:28.456Z,4.13
2023-05-14T13:34:31.466Z,5.90
2023-05-14T13:39:33.117Z,2.60
2023-05-14T13:44:34.706Z,3.22
2023-05-14T13:49:37.733Z,3.25
2023-05-14T13:54:39.413Z,5.88
2023-05-14T13:59:41.158Z,4.13
2023-05-14T14:04:44.227Z,4.30
2023-05-14T14:09:46.896Z,2.85
2023-05-14T14:14:48.435Z,4.30
2023-05-14T14:19:53.825Z,2.47
2023-05-14T14:24:55.418Z,1.95
2023-05-14T14:29:57.021Z,3.28
2023-05-14T14:35:02.286Z,3.50
2023-05-14T14:40:04.589Z,3.47
2023-05-14T14:45:09.297Z,4.20
2023-05-14T14:50:14.503Z,6.60
2023-05-14T14:55:16.063Z,4.35
2023-05-14T15:00:17.996Z,5.95
2023-05-14T15:05:21.050Z,4.78
2023-05-14T15:10:22.867Z,3.72
2023-05-14T15:15:26.351Z,3.13
2023-05-14T15:20:31.947Z,3.25
2023-05-14T15:25:36.039Z,4.80
2023-05-14T15:30:40.000Z,3.30
2023-05-14T15:35:45.517Z,4.45
2023-05-14T15:40:47.237Z,4.55
2023-05-14T15:45:48.836Z,4.80
2023-05-14T15:50:54.276Z,5.72
2023-05-14T15:56:01.031Z,9.32
2023-05-14T16:07:09.659Z,6.63
2023-05-14T16:12:11.504Z,4.93
2023-05-14T16:17:13.116Z,6.55
2023-05-14T16:22:16.188Z,6.65
2023-05-14T16:27:17.882Z,7.57
2023-05-14T16:32:20.521Z,5.90
2023-05-14T16:37:23.652Z,10.63
2023-05-14T16:42:27.452Z,6.63
2023-05-14T16:47:29.216Z,7.32
2023-05-14T16:52:36.008Z,9.15
2023-05-14T16:57:37.670Z,7.47
2023-05-14T17:02:39.403Z,6.28
2023-05-14T17:13:02.293Z,6.55
2023-05-14T17:18:05.538Z,7.22
2023-05-14T17:23:10.849Z,6.45
2023-05-14T17:28:13.800Z,5.82
2023-05-14T17:33:15.621Z,6.05
2023-05-14T17:38:18.622Z,7.75
2023-05-14T17:43:20.271Z,6.45
2023-05-14T17:48:22.127Z,7.75
2023-05-14T17:53:25.107Z,6.00
2023-05-14T17:58:26.914Z,5.63
2023-05-14T18:03:28.626Z,6.20
2023-05-14T18:08:31.701Z,7.95
2023-05-14T18:13:33.417Z,7.22
2023-05-14T18:18:36.195Z,7.03
2023-05-14T18:23:39.261Z,6.50
2023-05-14T18:28:40.972Z,7.65
2023-05-14T18:33:42.710Z,8.90
2023-05-14T18:38:45.659Z,7.65
2023-05-14T18:43:47.587Z,9.30
2023-05-14T18:49:01.558Z,7.10
2023-05-14T18:54:07.036Z,10.13
2023-05-14T18:59:08.745Z,9.05
2023-05-14T19:04:10.427Z,9.18
2023-05-14T19:09:13.552Z,25.10
2023-05-14T19:14:15.203Z,6.97
2023-05-14T19:19:17.016Z,4.90
2023-05-14T19:24:25.214Z,4.30
2023-05-14T19:29:28.892Z,5.93
2023-05-14T19:34:30.457Z,5.63
2023-05-14T19:39:33.470Z,5.10
2023-05-14T19:44:35.063Z,4.63
2023-05-14T19:49:36.716Z,7.30
2023-05-14T19:54:42.108Z,6.63
2023-05-14T19:59:43.782Z,6.97
2023-05-14T20:04:54.011Z,6.68
2023-05-14T20:09:59.473Z,7.70
2023-05-14T20:15:03.075Z,7.70
2023-05-14T20:20:06.166Z,4.47
2023-05-14T20:25:09.781Z,5.93
2023-05-14T20:30:12.105Z,5.78
2023-05-14T20:35:13.707Z,4.60
2023-05-14T20:40:16.861Z,5.13
2023-05-14T20:51:23.537Z,3.70
2023-05-14T20:56:29.081Z,6.10
2023-05-14T21:01:30.712Z,6.78
2023-05-14T21:06:32.352Z,8.65
2023-05-14T21:17:41.232Z,10.45
2023-05-14T21:22:42.975Z,8.10
2023-05-14T21:27:44.689Z,8.23
2023-05-14T21:32:49.952Z,7.18
2023-05-14T21:37:51.750Z,8.82
2023-05-14T21:42:53.394Z,8.20
2023-05-14T21:47:56.457Z,10.05
2023-05-14T21:52:58.160Z,10.43
2023-05-14T21:58:56.100Z,10.75
2023-05-14T22:03:59.205Z,11.02
2023-05-14T22:09:00.794Z,10.38
2023-05-14T22:14:02.420Z,9.73
2023-05-14T22:19:06.640Z,10.98
2023-05-14T22:24:16.098Z,11.10
2023-05-14T22:29:17.752Z,9.73
2023-05-14T22:34:20.816Z,13.40
2023-05-14T22:39:23.514Z,10.70
2023-05-14T22:44:29.745Z,9.35
2023-05-14T22:49:35.836Z,8.80
2023-05-14T22:54:37.495Z,11.02
2023-05-14T22:59:41.193Z,9.50
2023-05-14T23:04:44.177Z,8.10
2023-05-14T23:09:45.767Z,14.55
2023-05-14T23:14:51.275Z,11.32
2023-05-14T23:20:01.734Z,11.82
2023-05-14T23:25:03.585Z,10.70
2023-05-14T23:30:06.217Z,12.48
2023-05-14T23:35:09.619Z,8.82
2023-05-14T23:40:11.593Z,9.30
2023-05-14T23:45:13.451Z,12.32
2023-05-14T23:55:32.213Z,12.77
